sensor_id;sensor_type;location;lat;lon;timestamp;temperature;humidity
16301;DHT22;8258;51.020;4.248;2024-02-23T06:13:11;5.40;99.90
16301;DHT22;8258;51.020;4.248;2024-02-23T06:15:39;5.40;99.90
16301;DHT22;8258;51.020;4.248;2024-02-23T06:18:10;5.40;99.90
16301;DHT22;8258;51.020;4.248;2024-02-23T06:20:39;5.40;99.90
16301;DHT22;8258;51.020;4.248;2024-02-23T06:23:08;5.40;99.90
16301;DHT22;8258;51.020;4.248;2024-02-23T06:25:38;5.50;99.90
16301;DHT22;8258;51.020;4.248;2024-02-23T06:28:11;5.40;99.90
16301;DHT22;8258;51.020;4.248;2024-02-23T06:30:38;5.40;99.90
16301;DHT22;8258;51.020;4.248;2024-02-23T06:33:05;5.50;99.90
16301;DHT22;8258;51.020;4.248;2024-02-23T06:35:32;5.50;99.90
16301;DHT22;8258;51.020;4.248;2024-02-23T06:37:59;5.50;99.90
16301;DHT22;8258;51.020;4.248;2024-02-23T06:40:26;5.50;99.90
16301;DHT22;8258;51.020;4.248;2024-02-23T06:42:53;5.50;99.90
16301;DHT22;8258;51.020;4.248;2024-02-23T06:45:21;5.50;99.90
16301;DHT22;8258;51.020;4.248;2024-02-23T06:47:51;5.60;99.90
16301;DHT22;8258;51.020;4.248;2024-02-23T06:50:21;5.60;99.90
16301;DHT22;8258;51.020;4.248;2024-02-23T06:52:48;5.60;99.90
16301;DHT22;8258;51.020;4.248;2024-02-23T06:55:18;5.70;99.90
16301;DHT22;8258;51.020;4.248;2024-02-23T06:57:46;5.60;99.90
16301;DHT22;8258;51.020;4.248;2024-02-23T07:00:14;5.70;99.90
16301;DHT22;8258;51.020;4.248;2024-02-23T07:02:43;5.70;99.90
16301;DHT22;8258;51.020;4.248;2024-02-23T07:05:10;5.70;99.90
16301;DHT22;8258;51.020;4.248;2024-02-23T07:07:36;5.70;99.90
16301;DHT22;8258;51.020;4.248;2024-02-23T07:10:06;5.80;99.90
16301;DHT22;8258;51.020;4.248;2024-02-23T07:12:36;5.80;99.90
16301;DHT22;8258;51.020;4.248;2024-02-23T07:15:04;5.90;99.90
16301;DHT22;8258;51.020;4.248;2024-02-23T07:17:34;5.90;99.90
16301;DHT22;8258;51.020;4.248;2024-02-23T07:20:03;5.90;99.90
16301;DHT22;8258;51.020;4.248;2024-02-23T07:22:31;5.90;99.90
16301;DHT22;8258;51.020;4.248;2024-02-23T07:24:58;5.90;99.90
16301;DHT22;8258;51.020;4.248;2024-02-23T07:27:27;6.00;99.90
16301;DHT22;8258;51.020;4.248;2024-02-23T07:29:54;6.10;99.90
16301;DHT22;8258;51.020;4.248;2024-02-23T07:32:21;6.10;99.90
16301;DHT22;8258;51.020;4.248;2024-02-23T07:34:48;6.10;99.90
16301;DHT22;8258;51.020;4.248;2024-02-23T07:37:16;6.20;99.90
16301;DHT22;8258;51.020;4.248;2024-02-23T07:39:43;6.30;99.90
16301;DHT22;8258;51.020;4.248;2024-02-23T07:42:10;6.30;99.90
16301;DHT22;8258;51.020;4.248;2024-02-23T07:44:40;6.30;99.90
16301;DHT22;8258;51.020;4.248;2024-02-23T07:47:07;6.30;99.90
16301;DHT22;8258;51.020;4.248;2024-02-23T07:49:34;6.30;99.90
16301;DHT22;8258;51.020;4.248;2024-02-23T07:52:01;6.30;99.90
16301;DHT22;8258;51.020;4.248;2024-02-23T07:54:33;6.30;99.90
16301;DHT22;8258;51.020;4.248;2024-02-23T07:57:01;6.20;99.90
16301;DHT22;8258;51.020;4.248;2024-02-23T07:59:30;6.10;99.90
16301;DHT22;8258;51.020;4.248;2024-02-23T08:01:57;5.90;99.90
16301;DHT22;8258;51.020;4.248;2024-02-23T08:04:24;5.80;99.90
16301;DHT22;8258;51.020;4.248;2024-02-23T08:06:51;5.70;99.90
16301;DHT22;8258;51.020;4.248;2024-02-23T08:09:18;5.60;99.90
16301;DHT22;8258;51.020;4.248;2024-02-23T08:11:46;5.50;99.90
16301;DHT22;8258;51.020;4.248;2024-02-23T08:14:13;5.50;99.90
16301;DHT22;8258;51.020;4.248;2024-02-23T08:16:40;5.50;99.90
16301;DHT22;8258;51.020;4.248;2024-02-23T08:19:07;5.40;99.90
16301;DHT22;8258;51.020;4.248;2024-02-23T08:21:35;5.30;99.90
16301;DHT22;8258;51.020;4.248;2024-02-23T08:24:02;5.30;99.90
16301;DHT22;8258;51.020;4.248;2024-02-23T08:26:29;5.30;99.90
16301;DHT22;8258;51.020;4.248;2024-02-23T08:28:58;5.30;99.90
16301;DHT22;8258;51.020;4.248;2024-02-23T08:31:26;5.30;99.90
16301;DHT22;8258;51.020;4.248;2024-02-23T08:33:53;5.40;99.90
16301;DHT22;8258;51.020;4.248;2024-02-23T08:36:20;5.40;99.90
16301;DHT22;8258;51.020;4.248;2024-02-23T08:38:47;5.40;99.90
16301;DHT22;8258;51.020;4.248;2024-02-23T08:41:14;5.40;99.90
16301;DHT22;8258;51.020;4.248;2024-02-23T08:43:41;5.50;99.90
16301;DHT22;8258;51.020;4.248;2024-02-23T08:46:09;5.60;99.90
16301;DHT22;8258;51.020;4.248;2024-02-23T08:48:36;5.60;99.90
16301;DHT22;8258;51.020;4.248;2024-02-23T08:51:04;5.60;99.90
16301;DHT22;8258;51.020;4.248;2024-02-23T08:53:31;5.70;99.90
16301;DHT22;8258;51.020;4.248;2024-02-23T08:55:58;5.80;99.90
16301;DHT22;8258;51.020;4.248;2024-02-23T08:58:26;5.80;99.90
16301;DHT22;8258;51.020;4.248;2024-02-23T09:00:53;5.80;99.90
16301;DHT22;8258;51.020;4.248;2024-02-23T09:03:22;5.90;99.90
16301;DHT22;8258;51.020;4.248;2024-02-23T09:05:49;5.90;99.90
16301;DHT22;8258;51.020;4.248;2024-02-23T09:08:16;5.90;99.90
16301;DHT22;8258;51.020;4.248;2024-02-23T09:10:44;6.00;99.90
16301;DHT22;8258;51.020;4.248;2024-02-23T09:13:11;6.00;99.90
16301;DHT22;8258;51.020;4.248;2024-02-23T09:15:38;6.10;99.90
16301;DHT22;8258;51.020;4.248;2024-02-23T09:18:07;6.10;99.90
16301;DHT22;8258;51.020;4.248;2024-02-23T09:20:36;6.10;99.90
16301;DHT22;8258;51.020;4.248;2024-02-23T09:23:03;6.20;99.90
16301;DHT22;8258;51.020;4.248;2024-02-23T09:25:30;6.20;99.90
16301;DHT22;8258;51.020;4.248;2024-02-23T09:27:58;6.20;99.90
16301;DHT22;8258;51.020;4.248;2024-02-23T09:30:25;6.20;99.90
16301;DHT22;8258;51.020;4.248;2024-02-23T09:32:52;6.30;99.90
16301;DHT22;8258;51.020;4.248;2024-02-23T09:35:20;6.40;99.90
16301;DHT22;8258;51.020;4.248;2024-02-23T09:37:49;6.50;99.90
16301;DHT22;8258;51.020;4.248;2024-02-23T09:40:16;6.60;99.90
16301;DHT22;8258;51.020;4.248;2024-02-23T09:42:52;6.70;99.90
16301;DHT22;8258;51.020;4.248;2024-02-23T09:50:37;7.90;99.90
16301;DHT22;8258;51.020;4.248;2024-02-23T10:06:31;7.40;99.90
16301;DHT22;8258;51.020;4.248;2024-02-23T10:09:03;7.50;99.90
16301;DHT22;8258;51.020;4.248;2024-02-23T10:14:13;7.70;99.90
16301;DHT22;8258;51.020;4.248;2024-02-23T10:16:41;7.50;99.90
16301;DHT22;8258;51.020;4.248;2024-02-23T10:19:08;7.40;99.90
16301;DHT22;8258;51.020;4.248;2024-02-23T10:21:37;7.50;99.90
16301;DHT22;8258;51.020;4.248;2024-02-23T10:24:05;7.40;99.90
16301;DHT22;8258;51.020;4.248;2024-02-23T10:26:32;7.30;99.90
16301;DHT22;8258;51.020;4.248;2024-02-23T10:29:00;7.20;99.90
16301;DHT22;8258;51.020;4.248;2024-02-23T10:31:27;7.10;99.90
16301;DHT22;8258;51.020;4.248;2024-02-23T10:33:57;7.00;99.90
16301;DHT22;8258;51.020;4.248;2024-02-23T10:36:29;6.80;99.90
16301;DHT22;8258;51.020;4.248;2024-02-23T10:39:02;6.90;99.90
16301;DHT22;8258;51.020;4.248;2024-02-23T10:41:34;6.90;99.90
16301;DHT22;8258;51.020;4.248;2024-02-23T10:44:02;6.90;99.90
16301;DHT22;8258;51.020;4.248;2024-02-23T10:46:31;7.00;99.90
16301;DHT22;8258;51.020;4.248;2024-02-23T10:48:59;7.20;99.90
16301;DHT22;8258;51.020;4.248;2024-02-23T10:51:26;7.30;99.90
16301;DHT22;8258;51.020;4.248;2024-02-23T10:53:55;7.50;99.90
16301;DHT22;8258;51.020;4.248;2024-02-23T10:56:24;7.50;99.90
16301;DHT22;8258;51.020;4.248;2024-02-23T10:58:51;7.60;99.90
16301;DHT22;8258;51.020;4.248;2024-02-23T11:01:19;7.80;99.90
16301;DHT22;8258;51.020;4.248;2024-02-23T11:11:39;8.20;99.90
16301;DHT22;8258;51.020;4.248;2024-02-23T12:02:02;8.90;99.90
16301;DHT22;8258;51.020;4.248;2024-02-23T12:24:08;9.30;99.90
16301;DHT22;8258;51.020;4.248;2024-02-23T12:26:44;9.10;99.90
16301;DHT22;8258;51.020;4.248;2024-02-23T12:29:17;8.80;99.90
16301;DHT22;8258;51.020;4.248;2024-02-23T12:32:07;8.70;99.90
16301;DHT22;8258;51.020;4.248;2024-02-23T12:34:34;8.70;99.90
16301;DHT22;8258;51.020;4.248;2024-02-23T12:37:03;8.90;99.90
16301;DHT22;8258;51.020;4.248;2024-02-23T12:39:32;8.80;99.90
16301;DHT22;8258;51.020;4.248;2024-02-23T12:41:59;8.60;99.90
16301;DHT22;8258;51.020;4.248;2024-02-23T12:44:26;8.40;99.90
16301;DHT22;8258;51.020;4.248;2024-02-23T12:46:53;8.30;99.90
16301;DHT22;8258;51.020;4.248;2024-02-23T12:49:20;8.20;99.90
16301;DHT22;8258;51.020;4.248;2024-02-23T12:51:48;8.20;99.90
16301;DHT22;8258;51.020;4.248;2024-02-23T12:54:15;8.20;99.90
16301;DHT22;8258;51.020;4.248;2024-02-23T12:56:46;8.30;99.90
16301;DHT22;8258;51.020;4.248;2024-02-23T12:59:13;8.40;99.90
16301;DHT22;8258;51.020;4.248;2024-02-23T13:01:41;8.40;99.90
16301;DHT22;8258;51.020;4.248;2024-02-23T13:04:08;8.40;99.90
16301;DHT22;8258;51.020;4.248;2024-02-23T13:06:38;8.60;99.90
16301;DHT22;8258;51.020;4.248;2024-02-23T13:09:06;8.70;99.90
16301;DHT22;8258;51.020;4.248;2024-02-23T13:11:34;8.60;99.90
16301;DHT22;8258;51.020;4.248;2024-02-23T13:14:03;8.50;99.90
16301;DHT22;8258;51.020;4.248;2024-02-23T13:16:30;8.50;99.90
16301;DHT22;8258;51.020;4.248;2024-02-23T13:18:57;8.60;99.90
16301;DHT22;8258;51.020;4.248;2024-02-23T13:21:24;8.70;99.90
16301;DHT22;8258;51.020;4.248;2024-02-23T13:23:51;8.70;99.90
16301;DHT22;8258;51.020;4.248;2024-02-23T13:26:18;8.70;99.90
16301;DHT22;8258;51.020;4.248;2024-02-23T13:28:45;8.70;99.90
16301;DHT22;8258;51.020;4.248;2024-02-23T13:31:14;8.80;99.90
16301;DHT22;8258;51.020;4.248;2024-02-23T13:33:42;8.60;99.90
16301;DHT22;8258;51.020;4.248;2024-02-23T13:36:10;8.70;99.90
16301;DHT22;8258;51.020;4.248;2024-02-23T13:38:37;8.70;99.90
16301;DHT22;8258;51.020;4.248;2024-02-23T13:41:05;8.80;99.90
16301;DHT22;8258;51.020;4.248;2024-02-23T13:43:32;8.90;99.90
16301;DHT22;8258;51.020;4.248;2024-02-23T13:46:00;9.10;99.90
16301;DHT22;8258;51.020;4.248;2024-02-23T13:48:30;9.40;99.90
16301;DHT22;8258;51.020;4.248;2024-02-23T13:50:58;9.50;99.90
16301;DHT22;8258;51.020;4.248;2024-02-23T13:53:29;9.70;99.90
16301;DHT22;8258;51.020;4.248;2024-02-23T13:55:56;9.90;99.90
16301;DHT22;8258;51.020;4.248;2024-02-23T13:58:23;10.10;99.90
16301;DHT22;8258;51.020;4.248;2024-02-23T14:00:51;10.00;99.90
16301;DHT22;8258;51.020;4.248;2024-02-23T14:03:18;9.60;99.90
16301;DHT22;8258;51.020;4.248;2024-02-23T14:05:49;9.30;99.90
16301;DHT22;8258;51.020;4.248;2024-02-23T14:08:17;9.40;99.90
16301;DHT22;8258;51.020;4.248;2024-02-23T14:10:44;9.40;99.90
16301;DHT22;8258;51.020;4.248;2024-02-23T14:13:11;9.20;99.90
16301;DHT22;8258;51.020;4.248;2024-02-23T14:15:38;9.10;99.90
16301;DHT22;8258;51.020;4.248;2024-02-23T14:18:07;9.10;99.90
16301;DHT22;8258;51.020;4.248;2024-02-23T14:20:34;9.10;99.90
16301;DHT22;8258;51.020;4.248;2024-02-23T14:23:02;9.10;99.90
16301;DHT22;8258;51.020;4.248;2024-02-23T14:25:29;9.10;99.90
16301;DHT22;8258;51.020;4.248;2024-02-23T14:27:56;9.10;99.90
16301;DHT22;8258;51.020;4.248;2024-02-23T14:30:24;9.00;99.90
16301;DHT22;8258;51.020;4.248;2024-02-23T14:32:52;9.10;99.90
16301;DHT22;8258;51.020;4.248;2024-02-23T14:35:19;9.20;99.90
16301;DHT22;8258;51.020;4.248;2024-02-23T14:37:46;9.50;99.90
16301;DHT22;8258;51.020;4.248;2024-02-23T14:40:15;9.40;99.90
16301;DHT22;8258;51.020;4.248;2024-02-23T14:42:42;9.30;99.90
16301;DHT22;8258;51.020;4.248;2024-02-23T14:45:09;9.20;99.90
16301;DHT22;8258;51.020;4.248;2024-02-23T14:47:38;9.20;99.90
16301;DHT22;8258;51.020;4.248;2024-02-23T14:50:07;9.40;99.90
16301;DHT22;8258;51.020;4.248;2024-02-23T14:52:34;10.50;99.90
16301;DHT22;8258;51.020;4.248;2024-02-23T14:55:01;11.30;99.90
16301;DHT22;8258;51.020;4.248;2024-02-23T14:57:30;11.20;99.90
16301;DHT22;8258;51.020;4.248;2024-02-23T14:59:57;11.40;99.90
16301;DHT22;8258;51.020;4.248;2024-02-23T15:02:24;11.00;99.90
16301;DHT22;8258;51.020;4.248;2024-02-23T15:04:52;11.00;99.90
16301;DHT22;8258;51.020;4.248;2024-02-23T15:07:19;10.70;99.90
16301;DHT22;8258;51.020;4.248;2024-02-23T15:09:46;11.00;99.90
16301;DHT22;8258;51.020;4.248;2024-02-23T15:12:14;10.90;99.90
16301;DHT22;8258;51.020;4.248;2024-02-23T15:14:42;10.10;99.90
16301;DHT22;8258;51.020;4.248;2024-02-23T15:17:09;9.40;99.90
16301;DHT22;8258;51.020;4.248;2024-02-23T15:19:36;9.20;99.90
16301;DHT22;8258;51.020;4.248;2024-02-23T15:22:04;9.00;99.90
16301;DHT22;8258;51.020;4.248;2024-02-23T15:24:33;8.90;99.90
16301;DHT22;8258;51.020;4.248;2024-02-23T15:27:00;8.90;99.90
16301;DHT22;8258;51.020;4.248;2024-02-23T15:29:27;8.90;99.90
16301;DHT22;8258;51.020;4.248;2024-02-23T15:31:56;8.80;99.90
16301;DHT22;8258;51.020;4.248;2024-02-23T15:34:24;8.80;99.90
16301;DHT22;8258;51.020;4.248;2024-02-23T15:36:52;8.70;99.90
16301;DHT22;8258;51.020;4.248;2024-02-23T15:39:19;8.80;99.90
16301;DHT22;8258;51.020;4.248;2024-02-23T15:41:47;8.80;99.90
16301;DHT22;8258;51.020;4.248;2024-02-23T15:44:15;8.80;99.90
16301;DHT22;8258;51.020;4.248;2024-02-23T15:46:42;8.80;99.90
16301;DHT22;8258;51.020;4.248;2024-02-23T15:49:11;8.80;99.90
16301;DHT22;8258;51.020;4.248;2024-02-23T15:51:38;8.90;99.90
16301;DHT22;8258;51.020;4.248;2024-02-23T15:54:06;9.20;99.90
16301;DHT22;8258;51.020;4.248;2024-02-23T15:56:33;9.80;99.90
16301;DHT22;8258;51.020;4.248;2024-02-23T15:59:01;10.30;99.90
16301;DHT22;8258;51.020;4.248;2024-02-23T16:01:33;10.70;99.90
16301;DHT22;8258;51.020;4.248;2024-02-23T16:28:15;8.50;99.90
16301;DHT22;8258;51.020;4.248;2024-02-23T16:49:13;8.20;99.90
16301;DHT22;8258;51.020;4.248;2024-02-23T17:15:16;7.70;99.90
16301;DHT22;8258;51.020;4.248;2024-02-23T17:17:56;7.50;99.90
16301;DHT22;8258;51.020;4.248;2024-02-23T17:20:23;7.40;99.90
16301;DHT22;8258;51.020;4.248;2024-02-23T17:22:52;7.30;99.90
16301;DHT22;8258;51.020;4.248;2024-02-23T17:25:19;7.30;99.90
16301;DHT22;8258;51.020;4.248;2024-02-23T17:27:47;7.20;99.90
16301;DHT22;8258;51.020;4.248;2024-02-23T17:30:18;7.20;99.90
16301;DHT22;8258;51.020;4.248;2024-02-23T17:32:45;7.20;99.90
16301;DHT22;8258;51.020;4.248;2024-02-23T17:35:12;7.20;99.90
16301;DHT22;8258;51.020;4.248;2024-02-23T17:37:39;7.20;99.90
16301;DHT22;8258;51.020;4.248;2024-02-23T17:40:07;7.20;99.90
16301;DHT22;8258;51.020;4.248;2024-02-23T17:42:35;7.30;99.90
16301;DHT22;8258;51.020;4.248;2024-02-23T17:45:03;7.30;99.90
16301;DHT22;8258;51.020;4.248;2024-02-23T17:47:32;7.40;99.90
16301;DHT22;8258;51.020;4.248;2024-02-23T17:49:59;7.40;99.90
16301;DHT22;8258;51.020;4.248;2024-02-23T17:52:27;7.50;99.90
16301;DHT22;8258;51.020;4.248;2024-02-23T17:54:54;7.50;99.90
16301;DHT22;8258;51.020;4.248;2024-02-23T17:57:24;7.60;99.90
16301;DHT22;8258;51.020;4.248;2024-02-23T17:59:52;7.60;99.90
16301;DHT22;8258;51.020;4.248;2024-02-23T18:02:19;7.60;99.90
16301;DHT22;8258;51.020;4.248;2024-02-23T18:23:52;7.60;99.90
16301;DHT22;8258;51.020;4.248;2024-02-23T18:26:19;7.70;99.90
16301;DHT22;8258;51.020;4.248;2024-02-23T18:28:46;7.70;99.90
16301;DHT22;8258;51.020;4.248;2024-02-23T18:31:15;7.70;99.90
16301;DHT22;8258;51.020;4.248;2024-02-23T18:33:43;7.70;99.90
16301;DHT22;8258;51.020;4.248;2024-02-23T18:36:10;7.70;99.90
16301;DHT22;8258;51.020;4.248;2024-02-23T18:38:39;7.70;99.90
16301;DHT22;8258;51.020;4.248;2024-02-23T18:41:07;7.70;99.90
16301;DHT22;8258;51.020;4.248;2024-02-23T19:54:51;5.30;99.90
16301;DHT22;8258;51.020;4.248;2024-02-23T19:57:18;5.30;99.90
16301;DHT22;8258;51.020;4.248;2024-02-23T19:59:46;5.30;99.90
16301;DHT22;8258;51.020;4.248;2024-02-23T20:02:13;5.30;99.90
16301;DHT22;8258;51.020;4.248;2024-02-23T20:04:40;5.30;99.90
16301;DHT22;8258;51.020;4.248;2024-02-23T20:07:07;5.40;99.90
16301;DHT22;8258;51.020;4.248;2024-02-23T20:09:35;5.40;99.90
16301;DHT22;8258;51.020;4.248;2024-02-23T20:12:04;5.40;99.90
16301;DHT22;8258;51.020;4.248;2024-02-23T20:39:49;5.10;99.90
16301;DHT22;8258;51.020;4.248;2024-02-23T20:42:16;5.00;99.90
16301;DHT22;8258;51.020;4.248;2024-02-23T20:47:19;4.90;99.90
16301;DHT22;8258;51.020;4.248;2024-02-23T20:49:46;4.90;99.90
16301;DHT22;8258;51.020;4.248;2024-02-23T20:52:15;4.80;99.90
16301;DHT22;8258;51.020;4.248;2024-02-23T20:54:44;4.80;99.90
16301;DHT22;8258;51.020;4.248;2024-02-23T21:17:58;4.60;99.90
16301;DHT22;8258;51.020;4.248;2024-02-23T21:20:25;4.60;99.90
16301;DHT22;8258;51.020;4.248;2024-02-23T21:22:53;4.60;99.90
16301;DHT22;8258;51.020;4.248;2024-02-23T21:25:20;4.50;99.90
16301;DHT22;8258;51.020;4.248;2024-02-23T21:27:47;4.50;99.90
16301;DHT22;8258;51.020;4.248;2024-02-23T21:30:15;4.50;99.90
16301;DHT22;8258;51.020;4.248;2024-02-23T21:32:42;4.60;99.90
16301;DHT22;8258;51.020;4.248;2024-02-23T21:35:11;4.50;99.90
16301;DHT22;8258;51.020;4.248;2024-02-23T21:37:38;4.50;99.90
16301;DHT22;8258;51.020;4.248;2024-02-23T21:40:06;4.50;99.90
16301;DHT22;8258;51.020;4.248;2024-02-23T21:42:34;4.50;99.90
16301;DHT22;8258;51.020;4.248;2024-02-23T21:45:01;4.50;99.90
16301;DHT22;8258;51.020;4.248;2024-02-23T21:47:28;4.50;99.90
16301;DHT22;8258;51.020;4.248;2024-02-23T21:49:55;4.40;99.90
16301;DHT22;8258;51.020;4.248;2024-02-23T21:52:24;4.40;99.90
16301;DHT22;8258;51.020;4.248;2024-02-23T21:54:51;4.30;99.90
16301;DHT22;8258;51.020;4.248;2024-02-23T21:57:18;4.30;99.90
16301;DHT22;8258;51.020;4.248;2024-02-23T21:59:47;4.20;99.90
16301;DHT22;8258;51.020;4.248;2024-02-23T22:02:15;4.20;99.90
16301;DHT22;8258;51.020;4.248;2024-02-23T22:04:42;4.20;99.90
16301;DHT22;8258;51.020;4.248;2024-02-23T22:07:09;4.20;99.90
16301;DHT22;8258;51.020;4.248;2024-02-23T22:09:40;4.20;99.90
16301;DHT22;8258;51.020;4.248;2024-02-23T22:12:07;4.20;99.90
16301;DHT22;8258;51.020;4.248;2024-02-23T22:31:58;4.20;99.90
16301;DHT22;8258;51.020;4.248;2024-02-23T22:34:25;4.20;99.90
16301;DHT22;8258;51.020;4.248;2024-02-23T22:36:52;4.30;99.90
16301;DHT22;8258;51.020;4.248;2024-02-23T22:39:20;4.40;99.90
16301;DHT22;8258;51.020;4.248;2024-02-23T22:41:47;4.50;99.90
16301;DHT22;8258;51.020;4.248;2024-02-23T22:44:14;4.50;99.90
16301;DHT22;8258;51.020;4.248;2024-02-23T22:46:41;4.50;99.90
16301;DHT22;8258;51.020;4.248;2024-02-23T22:49:11;4.50;99.90
16301;DHT22;8258;51.020;4.248;2024-02-23T22:51:41;4.60;99.90
16301;DHT22;8258;51.020;4.248;2024-02-23T22:54:10;4.60;99.90
16301;DHT22;8258;51.020;4.248;2024-02-23T22:56:37;4.70;99.90
16301;DHT22;8258;51.020;4.248;2024-02-23T22:59:04;4.70;99.90
16301;DHT22;8258;51.020;4.248;2024-02-23T23:01:34;4.80;99.90
16301;DHT22;8258;51.020;4.248;2024-02-23T23:04:02;4.80;99.90
16301;DHT22;8258;51.020;4.248;2024-02-23T23:06:31;4.90;99.90
16301;DHT22;8258;51.020;4.248;2024-02-23T23:08:59;4.90;99.90
16301;DHT22;8258;51.020;4.248;2024-02-23T23:11:27;4.80;99.90
16301;DHT22;8258;51.020;4.248;2024-02-23T23:13:54;4.80;99.90
16301;DHT22;8258;51.020;4.248;2024-02-23T23:16:22;4.80;99.90
16301;DHT22;8258;51.020;4.248;2024-02-23T23:18:50;4.80;99.90
16301;DHT22;8258;51.020;4.248;2024-02-23T23:21:17;4.80;99.90
16301;DHT22;8258;51.020;4.248;2024-02-23T23:23:46;4.80;99.90
16301;DHT22;8258;51.020;4.248;2024-02-23T23:26:13;4.70;99.90
16301;DHT22;8258;51.020;4.248;2024-02-23T23:28:43;4.70;99.90
16301;DHT22;8258;51.020;4.248;2024-02-23T23:31:11;4.70;99.90
16301;DHT22;8258;51.020;4.248;2024-02-23T23:33:39;4.70;99.90
16301;DHT22;8258;51.020;4.248;2024-02-23T23:36:06;4.70;99.90
16301;DHT22;8258;51.020;4.248;2024-02-23T23:38:33;4.70;99.90
16301;DHT22;8258;51.020;4.248;2024-02-23T23:41:01;4.70;99.90
16301;DHT22;8258;51.020;4.248;2024-02-23T23:43:33;4.70;99.90
